createdAt,value
2022-12-03T00:03:17.298Z,58.83
2022-12-03T00:08:22.140Z,59.16
2022-12-03T00:13:25.475Z,58.49
2022-12-03T00:18:29.019Z,59.57
2022-12-03T00:23:37.176Z,58.84
2022-12-03T00:28:45.027Z,58.72
2022-12-03T00:33:48.319Z,58.67
2022-12-03T00:38:53.322Z,59.36
2022-12-03T00:43:57.975Z,58.68
2022-12-03T00:49:01.436Z,59.16
2022-12-03T00:54:06.243Z,58.52
2022-12-03T00:59:09.822Z,58.87
2022-12-03T01:04:13.165Z,59.58
2022-12-03T01:09:18.046Z,59.68
2022-12-03T01:14:22.209Z,58.83
2022-12-03T01:19:25.681Z,58.82
2022-12-03T01:24:30.529Z,59.11
2022-12-03T01:29:33.831Z,58.60
2022-12-03T01:34:37.259Z,58.97
2022-12-03T01:39:42.404Z,58.91
2022-12-03T01:44:47.201Z,58.99
2022-12-03T01:49:54.354Z,59.80
2022-12-03T01:55:01.986Z,59.42
2022-12-03T02:00:08.725Z,59.04
2022-12-03T02:05:19.270Z,59.01
2022-12-03T02:10:27.318Z,59.42
2022-12-03T02:15:30.830Z,58.65
2022-12-03T02:20:39.417Z,58.73
2022-12-03T02:25:44.195Z,59.79
2022-12-03T02:30:47.807Z,59.87
2022-12-03T02:35:51.369Z,59.76
2022-12-03T02:41:00.694Z,60.17
2022-12-03T02:46:06.807Z,59.80
2022-12-03T02:51:12.286Z,59.59
2022-12-03T02:56:20.209Z,60.64
2022-12-03T03:01:23.874Z,60.09
2022-12-03T03:06:27.541Z,60.59
2022-12-03T03:11:32.603Z,59.34
2022-12-03T03:16:36.475Z,59.86
2022-12-03T03:21:40.113Z,59.97
2022-12-03T03:26:45.054Z,59.96
2022-12-03T03:31:49.329Z,60.40
2022-12-03T03:36:52.771Z,59.84
2022-12-03T03:41:57.584Z,59.92
2022-12-03T03:47:01.783Z,59.65
2022-12-03T03:52:05.576Z,60.21
2022-12-03T03:57:10.610Z,59.53
2022-12-03T04:02:20.976Z,59.98
2022-12-03T04:07:24.357Z,59.42
2022-12-03T04:12:46.408Z,60.35
2022-12-03T04:18:09.984Z,60.50
2022-12-03T04:23:13.325Z,59.79
2022-12-03T04:28:35.381Z,60.32
2022-12-03T04:33:55.936Z,60.63
2022-12-03T04:38:59.247Z,60.33
2022-12-03T04:44:21.312Z,60.17
2022-12-03T04:49:24.830Z,59.69
2022-12-03T04:54:28.273Z,60.02
2022-12-03T04:59:33.611Z,59.83
2022-12-03T05:04:37.270Z,59.56
2022-12-03T05:09:40.897Z,60.09
2022-12-03T05:14:45.728Z,60.41
2022-12-03T05:20:06.261Z,60.08
2022-12-03T05:25:10.726Z,59.95
2022-12-03T05:30:16.942Z,59.76
2022-12-03T05:35:20.452Z,59.37
2022-12-03T05:40:24.214Z,60.26
2022-12-03T05:45:30.697Z,59.78
2022-12-03T05:50:36.362Z,59.00
2022-12-03T05:55:40.228Z,59.27
2022-12-03T06:00:45.180Z,58.76
2022-12-03T06:05:48.589Z,59.28
2022-12-03T06:10:52.528Z,58.96
2022-12-03T06:15:57.539Z,58.68
2022-12-03T06:21:00.991Z,59.33
2022-12-03T06:26:06.542Z,58.77
2022-12-03T06:31:11.470Z,59.08
2022-12-03T06:36:21.521Z,58.90
2022-12-03T06:41:26.234Z,58.12
2022-12-03T06:46:31.050Z,57.42
2022-12-03T06:51:34.458Z,57.28
2022-12-03T06:56:43.601Z,56.81
2022-12-03T07:01:50.245Z,55.49
2022-12-03T07:06:53.827Z,55.28
2022-12-03T07:11:57.307Z,54.34
2022-12-03T07:17:02.003Z,52.96
2022-12-03T07:22:05.988Z,53.35
2022-12-03T07:27:24.630Z,50.77
2022-12-03T07:32:29.455Z,50.46
2022-12-03T07:37:32.792Z,49.85
2022-12-03T07:42:36.465Z,49.16
2022-12-03T07:47:41.320Z,47.49
2022-12-03T07:52:44.760Z,46.74
2022-12-03T07:57:48.255Z,46.97
2022-12-03T08:02:52.974Z,46.40
2022-12-03T08:07:56.660Z,46.48
2022-12-03T08:13:00.912Z,46.09
2022-12-03T08:18:09.698Z,46.16
2022-12-03T08:23:16.605Z,45.23
2022-12-03T08:28:22.266Z,45.74
2022-12-03T08:33:29.207Z,45.34
2022-12-03T08:38:32.813Z,45.95
2022-12-03T08:43:42.272Z,46.02
2022-12-03T08:48:49.463Z,46.35
2022-12-03T08:54:01.047Z,47.52
2022-12-03T08:59:25.686Z,48.19
2022-12-03T09:04:37.509Z,48.60
2022-12-03T09:09:40.986Z,48.70
2022-12-03T09:14:44.786Z,48.83
2022-12-03T09:19:49.664Z,48.98
2022-12-03T09:24:53.195Z,49.97
2022-12-03T09:29:56.813Z,49.19
2022-12-03T09:35:01.710Z,49.57
2022-12-03T09:40:05.663Z,50.21
2022-12-03T09:45:12.539Z,50.74
2022-12-03T09:50:20.271Z,50.54
2022-12-03T09:55:27.180Z,51.05
2022-12-03T10:00:31.585Z,51.87
2022-12-03T10:05:36.692Z,52.46
2022-12-03T10:10:41.985Z,52.25
2022-12-03T10:15:45.407Z,53.15
2022-12-03T10:20:51.352Z,52.99
2022-12-03T10:25:57.296Z,53.77
2022-12-03T10:31:02.121Z,53.04
2022-12-03T10:36:25.377Z,54.59
2022-12-03T10:41:30.010Z,54.23
2022-12-03T10:46:33.648Z,54.21
2022-12-03T10:51:39.569Z,54.56
2022-12-03T10:56:42.910Z,53.87
2022-12-03T11:01:46.992Z,54.98
2022-12-03T11:06:52.178Z,54.49
2022-12-03T11:11:56.182Z,54.99
2022-12-03T11:17:10.058Z,55.97
2022-12-03T11:22:42.742Z,56.98
2022-12-03T11:28:06.482Z,55.67
2022-12-03T11:33:25.759Z,56.75
2022-12-03T11:38:53.367Z,56.29
2022-12-03T11:44:20.392Z,56.60
2022-12-03T11:49:48.251Z,56.63
2022-12-03T11:54:56.187Z,56.90
2022-12-03T12:00:06.842Z,57.08
2022-12-03T12:05:21.885Z,57.28
2022-12-03T12:10:44.671Z,57.51
2022-12-03T12:15:48.190Z,57.05
2022-12-03T12:20:51.699Z,57.82
2022-12-03T12:26:07.388Z,57.75
2022-12-03T12:31:12.593Z,57.48
2022-12-03T12:36:16.116Z,57.96
2022-12-03T12:41:20.980Z,57.86
2022-12-03T12:46:47.420Z,59.00
2022-12-03T12:51:49.467Z,58.22
2022-12-03T12:56:54.195Z,59.18
2022-12-03T13:01:57.393Z,59.76
2022-12-03T13:07:01.257Z,58.40
2022-12-03T13:12:07.760Z,59.69
2022-12-03T13:17:16.814Z,59.64
2022-12-03T13:22:22.279Z,58.82
2022-12-03T13:27:30.754Z,59.94
2022-12-03T13:32:37.379Z,59.73
2022-12-03T13:37:40.926Z,59.44
2022-12-03T13:42:46.712Z,59.89
2022-12-03T13:47:54.548Z,60.14
2022-12-03T13:52:59.330Z,59.45
2022-12-03T13:58:04.238Z,60.03
2022-12-03T14:03:07.766Z,60.20
2022-12-03T14:08:11.180Z,59.39
2022-12-03T14:13:16.060Z,59.96
2022-12-03T14:18:19.445Z,59.88
2022-12-03T14:23:22.946Z,60.02
2022-12-03T14:28:27.846Z,59.89
2022-12-03T14:33:31.187Z,60.11
2022-12-03T14:38:34.810Z,59.31
2022-12-03T14:43:39.722Z,59.80
2022-12-03T14:48:43.083Z,59.32
2022-12-03T14:53:46.522Z,59.23
2022-12-03T14:58:51.231Z,59.08
2022-12-03T15:03:54.378Z,60.58
2022-12-03T15:08:57.717Z,60.71
2022-12-03T15:14:02.586Z,60.14
2022-12-03T15:19:05.874Z,61.59
2022-12-03T15:24:10.671Z,61.33
2022-12-03T15:29:15.488Z,60.78
2022-12-03T15:34:22.898Z,61.21
2022-12-03T15:39:26.607Z,61.38
2022-12-03T15:44:31.538Z,61.03
2022-12-03T15:49:34.904Z,61.17
2022-12-03T15:54:38.242Z,61.27
2022-12-03T15:59:43.484Z,61.00
2022-12-03T16:04:46.912Z,61.59
2022-12-03T16:09:50.615Z,63.43
2022-12-03T16:14:55.665Z,62.64
2022-12-03T16:19:59.125Z,62.86
2022-12-03T16:25:03.479Z,62.31
2022-12-03T16:30:10.214Z,63.40
2022-12-03T16:35:13.691Z,63.25
2022-12-03T16:40:17.080Z,63.43
2022-12-03T16:45:51.143Z,63.86
2022-12-03T16:50:54.924Z,65.12
2022-12-03T16:55:58.401Z,66.07
2022-12-03T17:01:03.296Z,66.11
2022-12-03T17:06:07.235Z,64.20
2022-12-03T17:11:10.759Z,64.35
2022-12-03T17:16:15.740Z,65.99
2022-12-03T17:21:19.240Z,65.67
2022-12-03T17:26:22.710Z,65.24
2022-12-03T17:31:27.705Z,64.52
2022-12-03T17:36:31.240Z,65.84
2022-12-03T17:41:34.980Z,65.23
2022-12-03T17:46:40.405Z,66.88
2022-12-03T17:51:43.878Z,67.13
2022-12-03T17:56:47.343Z,64.71
2022-12-03T18:01:52.246Z,65.08
2022-12-03T18:07:00.649Z,63.77
2022-12-03T18:12:06.127Z,63.62
2022-12-03T18:17:11.373Z,63.31
2022-12-03T18:22:15.030Z,62.75
2022-12-03T18:27:19.500Z,62.20
2022-12-03T18:32:31.501Z,62.21
2022-12-03T18:37:35.279Z,61.08
2022-12-03T18:42:38.629Z,61.06
2022-12-03T18:47:44.521Z,60.95
2022-12-03T18:52:47.977Z,61.11
2022-12-03T18:57:52.067Z,62.68
2022-12-03T19:03:04.631Z,61.59
2022-12-03T19:08:14.869Z,61.59
2022-12-03T19:13:18.530Z,62.10
2022-12-03T19:18:23.816Z,62.61
2022-12-03T19:23:27.207Z,62.87
2022-12-03T19:28:31.155Z,63.06
2022-12-03T19:33:36.425Z,63.26
2022-12-03T19:38:39.930Z,63.32
2022-12-03T19:43:43.295Z,62.33
2022-12-03T19:48:48.724Z,62.73
2022-12-03T19:53:52.182Z,63.13
2022-12-03T19:58:56.645Z,62.85
2022-12-03T20:04:03.637Z,63.40
2022-12-03T20:09:09.454Z,63.64
2022-12-03T20:14:16.060Z,63.23
2022-12-03T20:19:20.819Z,63.16
2022-12-03T20:24:24.259Z,63.39
2022-12-03T20:29:27.542Z,63.75
2022-12-03T20:34:34.216Z,63.66
2022-12-03T20:39:37.638Z,63.39
2022-12-03T20:44:41.219Z,63.87
2022-12-03T20:49:46.472Z,64.45
2022-12-03T20:54:49.892Z,64.88
2022-12-03T20:59:55.529Z,63.87
2022-12-03T21:05:00.570Z,64.33
2022-12-03T21:10:04.416Z,63.65
2022-12-03T21:15:08.718Z,64.07
2022-12-03T21:20:16.697Z,64.17
2022-12-03T21:25:24.086Z,64.22
2022-12-03T21:30:28.980Z,64.75
2022-12-03T21:35:34.126Z,64.39
2022-12-03T21:40:37.569Z,64.01
2022-12-03T21:45:41.528Z,64.51
2022-12-03T21:50:47.389Z,64.90
2022-12-03T21:55:50.950Z,64.40
2022-12-03T22:00:54.358Z,64.02
2022-12-03T22:05:59.131Z,63.89
2022-12-03T22:11:06.538Z,64.04
2022-12-03T22:16:11.680Z,63.90
2022-12-03T22:21:19.014Z,63.92
2022-12-03T22:26:22.401Z,64.34
2022-12-03T22:31:25.912Z,63.78
2022-12-03T22:36:31.177Z,63.55
2022-12-03T22:41:34.523Z,63.19
2022-12-03T22:46:37.921Z,63.17
2022-12-03T22:51:45.863Z,64.03
2022-12-03T22:56:49.482Z,63.84
2022-12-03T23:01:52.978Z,63.75
2022-12-03T23:06:57.875Z,63.17
2022-12-03T23:12:01.238Z,63.60
2022-12-03T23:17:04.981Z,64.22
2022-12-03T23:22:09.870Z,63.83
2022-12-03T23:27:13.854Z,63.33
2022-12-03T23:32:17.590Z,63.14
2022-12-03T23:37:22.995Z,63.11
2022-12-03T23:42:26.351Z,63.98
2022-12-03T23:47:29.847Z,63.50
2022-12-03T23:52:36.823Z,62.88
2022-12-03T23:57:40.291Z,62.70
